Time;durP1;ratioP1;P1;durP2;ratioP2;P2;SDS_P1;SDS_P2;PMS_P1;PMS_P2;Temp;Humidity;BMP_temperature;BMP_pressure;BME280_temperature;BME280_humidity;BME280_pressure;Samples;Min_cycle;Max_cycle;Signal;HPM_P1;HPM_P2
2022/09/10 00:00:57;;;;;;;31.13;22.80;;;;;;;;;;5009975;28;20196;-60
2022/09/10 00:03:24;;;;;;;30.03;22.97;;;;;;;;;;5009168;28;20880;-60
2022/09/10 00:05:51;;;;;;;32.63;22.83;;;;;;;;;;5008825;28;20192;-65
2022/09/10 00:08:18;;;;;;;33.47;22.00;;;;;;;;;;5008485;28;20580;-60
2022/09/10 00:10:48;;;;;;;34.73;22.00;;;;;;;;;;5009951;28;20440;-60
2022/09/10 00:13:16;;;;;;;29.50;20.43;;;;;;;;;;5010356;28;20339;-60
2022/09/10 00:15:44;;;;;;;28.83;20.77;;;;;;;;;;5009062;28;20246;-61
2022/09/10 00:18:11;;;;;;;26.80;19.87;;;;;;;;;;5009838;28;20279;-60
2022/09/10 00:20:46;;;;;;;26.83;20.33;;;;;;;;;;5009767;28;20231;-60
2022/09/10 00:23:14;;;;;;;28.20;19.13;;;;;;;;;;5007259;28;20211;-60
2022/09/10 00:25:41;;;;;;;21.27;16.63;;;;;;;;;;5009052;28;20682;-60
2022/09/10 00:28:08;;;;;;;21.70;16.83;;;;;;;;;;5009391;28;20192;-60
2022/09/10 00:30:41;;;;;;;21.07;16.03;;;;;;;;;;4990354;28;20203;-60
2022/09/10 00:33:08;;;;;;;17.03;13.63;;;;;;;;;;5008573;28;20730;-60
2022/09/10 00:35:35;;;;;;;14.70;11.53;;;;;;;;;;5009535;28;20202;-60
2022/09/10 00:38:02;;;;;;;14.57;11.00;;;;;;;;;;4991860;28;20204;-63
2022/09/10 00:40:30;;;;;;;12.37;10.47;;;;;;;;;;5012489;28;20195;-60
2022/09/10 00:42:57;;;;;;;15.80;11.60;;;;;;;;;;4999635;28;20676;-60
2022/09/10 00:45:28;;;;;;;13.23;11.77;;;;;;;;;;4992028;28;20777;-60
2022/09/10 00:47:56;;;;;;;16.20;12.23;;;;;;;;;;5009568;28;20236;-60
2022/09/10 00:50:24;;;;;;;18.90;14.37;;;;;;;;;;4975765;28;20555;-60
2022/09/10 00:52:51;;;;;;;20.23;15.20;;;;;;;;;;5007944;28;20307;-60
2022/09/10 00:55:18;;;;;;;22.07;16.10;;;;;;;;;;5008830;28;20192;-62
2022/09/10 00:57:46;;;;;;;23.90;16.63;;;;;;;;;;5010081;28;20200;-60
2022/09/10 01:00:12;;;;;;;22.27;16.50;;;;;;;;;;4976197;28;20191;-60
2022/09/10 01:02:40;;;;;;;21.00;16.33;;;;;;;;;;4991067;28;20315;-60
2022/09/10 01:05:08;;;;;;;24.07;16.03;;;;;;;;;;5007975;28;20560;-60
2022/09/10 01:07:35;;;;;;;22.63;16.37;;;;;;;;;;4974609;28;20568;-61
2022/09/10 01:10:05;;;;;;;21.17;16.03;;;;;;;;;;5009674;28;20195;-60
2022/09/10 01:12:47;;;;;;;21.20;15.97;;;;;;;;;;4974867;28;20197;-60
2022/09/10 01:15:15;;;;;;;21.20;15.57;;;;;;;;;;4991562;28;20261;-60
2022/09/10 01:17:50;;;;;;;23.80;16.97;;;;;;;;;;4990891;28;20311;-60
2022/09/10 01:20:46;;;;;;;24.53;17.37;;;;;;;;;;5008608;28;20200;-61
2022/09/10 01:23:32;;;;;;;28.30;18.20;;;;;;;;;;4999824;28;20278;-60
2022/09/10 01:26:18;;;;;;;26.53;17.97;;;;;;;;;;4991589;28;21068;-60
2022/09/10 01:28:48;;;;;;;32.17;18.73;;;;;;;;;;4987547;28;20197;-60
2022/09/10 01:31:25;;;;;;;25.13;18.90;;;;;;;;;;4987362;28;20204;-60
2022/09/10 01:33:56;;;;;;;30.87;19.20;;;;;;;;;;5009014;28;20306;-60
2022/09/10 01:36:24;;;;;;;30.30;18.17;;;;;;;;;;4974237;28;20335;-60
2022/09/10 01:38:51;;;;;;;29.97;19.47;;;;;;;;;;4971408;28;20195;-60
2022/09/10 01:41:20;;;;;;;35.00;19.53;;;;;;;;;;5001510;28;20192;-60
2022/09/10 01:43:46;;;;;;;33.00;19.57;;;;;;;;;;4993969;28;20255;-60
2022/09/10 01:46:26;;;;;;;36.47;19.43;;;;;;;;;;4994624;28;20588;-60
2022/09/10 01:49:12;;;;;;;24.43;18.40;;;;;;;;;;5006331;28;20607;-60
2022/09/10 01:51:45;;;;;;;33.67;17.83;;;;;;;;;;4993601;28;20230;-60
2022/09/10 01:54:25;;;;;;;34.27;18.80;;;;;;;;;;4994170;28;20298;-60
2022/09/10 01:57:17;;;;;;;33.53;17.77;;;;;;;;;;4994131;28;20354;-60
2022/09/10 02:00:00;;;;;;;29.23;16.20;;;;;;;;;;5003920;28;20286;-60
2022/09/10 02:02:28;;;;;;;33.13;17.07;;;;;;;;;;4994388;28;20220;-60
2022/09/10 02:04:55;;;;;;;30.80;17.43;;;;;;;;;;4994357;28;20694;-60
2022/09/10 02:07:22;;;;;;;28.90;18.30;;;;;;;;;;4977523;28;20196;-60
2022/09/10 02:09:50;;;;;;;25.17;17.00;;;;;;;;;;4985902;28;20196;-60
2022/09/10 02:12:18;;;;;;;22.77;17.07;;;;;;;;;;5010590;28;20207;-60
2022/09/10 02:14:49;;;;;;;40.20;17.57;;;;;;;;;;4993678;28;20254;-60
2022/09/10 02:17:35;;;;;;;34.60;17.33;;;;;;;;;;5011100;28;20207;-61
2022/09/10 02:20:03;;;;;;;37.00;16.70;;;;;;;;;;4977948;28;20226;-60
2022/09/10 02:22:30;;;;;;;39.30;17.10;;;;;;;;;;4990153;28;20529;-60
2022/09/10 02:24:57;;;;;;;33.73;17.17;;;;;;;;;;4990334;28;20221;-60
2022/09/10 02:27:24;;;;;;;37.67;17.33;;;;;;;;;;5006167;28;20279;-60
2022/09/10 02:29:50;;;;;;;26.37;16.73;;;;;;;;;;5009856;28;20228;-60
2022/09/10 02:32:17;;;;;;;27.63;17.80;;;;;;;;;;5011211;28;20192;-60
2022/09/10 02:34:47;;;;;;;23.50;17.27;;;;;;;;;;4977427;28;20776;-60
2022/09/10 02:37:15;;;;;;;27.30;17.50;;;;;;;;;;5011509;28;20200;-60
2022/09/10 02:39:43;;;;;;;29.03;17.43;;;;;;;;;;5010856;28;20553;-60
2022/09/10 02:42:12;;;;;;;24.33;17.67;;;;;;;;;;5004901;28;20270;-60
2022/09/10 02:44:38;;;;;;;24.43;17.80;;;;;;;;;;4992085;28;20192;-60
2022/09/10 02:47:05;;;;;;;30.60;19.30;;;;;;;;;;4993628;28;20668;-60
2022/09/10 02:49:34;;;;;;;30.33;17.43;;;;;;;;;;4992798;28;20199;-61
2022/09/10 02:52:03;;;;;;;25.63;18.07;;;;;;;;;;5009799;28;20227;-61
2022/09/10 02:54:30;;;;;;;27.37;17.70;;;;;;;;;;5007968;28;20228;-61
2022/09/10 02:56:57;;;;;;;22.73;17.67;;;;;;;;;;4992198;28;20262;-60
2022/09/10 02:59:23;;;;;;;25.53;17.30;;;;;;;;;;4982006;28;20196;-61
2022/09/10 03:01:50;;;;;;;22.27;16.77;;;;;;;;;;5009622;28;20192;-60
2022/09/10 03:04:17;;;;;;;25.57;18.03;;;;;;;;;;5010114;28;20188;-60
2022/09/10 03:06:48;;;;;;;25.67;18.00;;;;;;;;;;4991880;28;20659;-61
2022/09/10 03:09:15;;;;;;;24.50;17.57;;;;;;;;;;4997038;28;21137;-61
2022/09/10 03:11:42;;;;;;;23.77;16.50;;;;;;;;;;5009877;28;20191;-60
2022/09/10 03:14:09;;;;;;;22.77;16.30;;;;;;;;;;5009252;28;20208;-60
2022/09/10 03:16:35;;;;;;;22.77;16.33;;;;;;;;;;5009273;28;20196;-61
2022/09/10 03:19:05;;;;;;;23.50;17.43;;;;;;;;;;4992259;28;20243;-61
2022/09/10 03:21:33;;;;;;;23.97;17.37;;;;;;;;;;5009378;28;20659;-61
2022/09/10 03:24:00;;;;;;;22.97;17.10;;;;;;;;;;5008160;28;21002;-60
2022/09/10 03:26:29;;;;;;;24.00;17.87;;;;;;;;;;5006805;28;20196;-61
2022/09/10 03:28:56;;;;;;;27.77;18.57;;;;;;;;;;5006919;28;20603;-61
2022/09/10 03:31:26;;;;;;;27.90;18.57;;;;;;;;;;4991514;28;20200;-61
2022/09/10 03:33:53;;;;;;;25.77;18.53;;;;;;;;;;5008758;28;20223;-60
2022/09/10 03:36:21;;;;;;;31.00;19.90;;;;;;;;;;4989438;28;20207;-61
2022/09/10 03:38:49;;;;;;;30.70;20.23;;;;;;;;;;4991479;28;20652;-61
2022/09/10 03:41:16;;;;;;;27.90;19.43;;;;;;;;;;4995732;28;20283;-60
2022/09/10 03:43:43;;;;;;;33.73;21.07;;;;;;;;;;5004248;28;20660;-60
2022/09/10 03:46:10;;;;;;;31.53;19.93;;;;;;;;;;5008321;28;20652;-61
2022/09/10 03:48:42;;;;;;;30.37;19.57;;;;;;;;;;5007791;28;20214;-60
2022/09/10 03:51:09;;;;;;;35.10;19.80;;;;;;;;;;5007060;28;20200;-61
2022/09/10 03:53:37;;;;;;;32.93;20.93;;;;;;;;;;4989280;28;20232;-60
2022/09/10 03:56:06;;;;;;;34.57;20.43;;;;;;;;;;4990142;28;20676;-61
2022/09/10 03:58:34;;;;;;;33.40;20.47;;;;;;;;;;4988917;28;20209;-61
2022/09/10 04:01:02;;;;;;;27.40;19.17;;;;;;;;;;4990688;28;20199;-61
2022/09/10 04:03:32;;;;;;;31.53;19.43;;;;;;;;;;4972770;28;20207;-61
2022/09/10 04:05:59;;;;;;;29.63;19.67;;;;;;;;;;4990686;28;20211;-60
2022/09/10 04:08:25;;;;;;;32.57;20.13;;;;;;;;;;4990264;28;20195;-61
2022/09/10 04:10:53;;;;;;;30.23;20.03;;;;;;;;;;5007217;28;20194;-61
2022/09/10 04:13:21;;;;;;;36.60;20.43;;;;;;;;;;5007147;28;20930;-61
2022/09/10 04:15:48;;;;;;;32.23;19.43;;;;;;;;;;5008458;28;20220;-61
2022/09/10 04:18:15;;;;;;;31.67;19.13;;;;;;;;;;4988161;28;20680;-61
2022/09/10 04:20:45;;;;;;;34.03;20.30;;;;;;;;;;5007797;28;20204;-61
2022/09/10 04:23:14;;;;;;;25.37;18.07;;;;;;;;;;4987905;28;20550;-61
2022/09/10 04:25:41;;;;;;;29.13;20.63;;;;;;;;;;5004716;28;20203;-61
2022/09/10 04:28:08;;;;;;;29.57;20.53;;;;;;;;;;4989261;28;20192;-60
2022/09/10 04:30:36;;;;;;;30.40;19.10;;;;;;;;;;5005554;28;20200;-61
2022/09/10 04:33:03;;;;;;;30.97;20.27;;;;;;;;;;5005208;28;20623;-61
2022/09/10 04:35:31;;;;;;;44.20;20.23;;;;;;;;;;4987063;28;20317;-60
2022/09/10 04:38:00;;;;;;;32.37;19.30;;;;;;;;;;4989294;28;20869;-61
2022/09/10 04:40:28;;;;;;;26.93;18.17;;;;;;;;;;4990464;28;20212;-60
2022/09/10 04:42:55;;;;;;;28.27;18.47;;;;;;;;;;4988855;28;20262;-60
2022/09/10 04:45:22;;;;;;;29.77;19.00;;;;;;;;;;5006497;28;20198;-61
2022/09/10 04:47:50;;;;;;;36.10;19.20;;;;;;;;;;4987871;28;20200;-61
2022/09/10 04:50:16;;;;;;;29.33;18.47;;;;;;;;;;5008140;28;20754;-61
2022/09/10 04:53:03;;;;;;;25.00;18.50;;;;;;;;;;5006720;28;20235;-59
2022/09/10 04:55:30;;;;;;;26.27;18.07;;;;;;;;;;4988311;28;20220;-59
2022/09/10 04:57:56;;;;;;;28.60;19.20;;;;;;;;;;4990061;28;20212;-59
2022/09/10 05:00:25;;;;;;;29.37;18.70;;;;;;;;;;4988674;28;20283;-59
2022/09/10 05:02:52;;;;;;;28.20;18.43;;;;;;;;;;4988680;28;20727;-59
2022/09/10 05:05:19;;;;;;;27.10;18.77;;;;;;;;;;4988978;28;20196;-59
2022/09/10 05:07:47;;;;;;;30.40;18.53;;;;;;;;;;5006964;28;20238;-58
2022/09/10 05:10:14;;;;;;;30.47;19.43;;;;;;;;;;4990374;28;20208;-59
2022/09/10 05:12:41;;;;;;;25.93;17.50;;;;;;;;;;4988925;28;20291;-58
2022/09/10 05:15:09;;;;;;;26.27;18.23;;;;;;;;;;4996850;28;20714;-59
2022/09/10 05:17:36;;;;;;;28.03;17.37;;;;;;;;;;4990127;28;20184;-59
2022/09/10 05:20:05;;;;;;;23.63;16.90;;;;;;;;;;5011027;28;20668;-59
2022/09/10 05:22:37;;;;;;;26.87;17.40;;;;;;;;;;5002182;28;20258;-59
2022/09/10 05:25:07;;;;;;;22.17;17.00;;;;;;;;;;5007164;28;20694;-60
2022/09/10 05:27:33;;;;;;;24.87;16.97;;;;;;;;;;4993062;28;20274;-59
2022/09/10 05:30:01;;;;;;;21.97;16.23;;;;;;;;;;5009097;28;20255;-61
2022/09/10 05:32:29;;;;;;;25.27;16.97;;;;;;;;;;4994998;28;20623;-60
2022/09/10 05:34:55;;;;;;;25.73;17.17;;;;;;;;;;5009360;28;20635;-58
2022/09/10 05:37:22;;;;;;;21.83;16.00;;;;;;;;;;4993163;28;20188;-59
2022/09/10 05:39:49;;;;;;;19.77;15.57;;;;;;;;;;5009628;28;20247;-59
2022/09/10 05:42:17;;;;;;;21.93;15.63;;;;;;;;;;5016885;28;20177;-59
2022/09/10 05:44:44;;;;;;;18.93;14.80;;;;;;;;;;4992139;28;20204;-60
2022/09/10 05:47:11;;;;;;;19.33;15.20;;;;;;;;;;4992930;28;20199;-59
2022/09/10 05:49:38;;;;;;;19.43;14.57;;;;;;;;;;4993400;28;20882;-62
2022/09/10 05:52:05;;;;;;;23.50;15.17;;;;;;;;;;5008380;28;20235;-61
2022/09/10 05:54:34;;;;;;;17.17;13.90;;;;;;;;;;5010026;28;20269;-60
2022/09/10 05:57:00;;;;;;;18.63;14.17;;;;;;;;;;5011340;28;20212;-59
2022/09/10 05:59:29;;;;;;;16.40;12.83;;;;;;;;;;4993912;28;20204;-60
2022/09/10 06:01:56;;;;;;;18.73;13.07;;;;;;;;;;5011602;28;20185;-60
2022/09/10 06:04:24;;;;;;;16.53;12.70;;;;;;;;;;4992339;28;20206;-60
2022/09/10 06:06:52;;;;;;;14.27;12.13;;;;;;;;;;5010496;28;20548;-59
2022/09/10 06:09:19;;;;;;;14.53;11.77;;;;;;;;;;5008594;28;20200;-59
2022/09/10 06:11:53;;;;;;;16.33;12.73;;;;;;;;;;4993007;28;20283;-59
2022/09/10 06:14:21;;;;;;;17.73;13.03;;;;;;;;;;4992111;28;20210;-59
2022/09/10 06:16:48;;;;;;;14.57;12.00;;;;;;;;;;4999363;28;20192;-59
2022/09/10 06:19:15;;;;;;;15.57;12.03;;;;;;;;;;4993080;28;20223;-59
2022/09/10 06:21:42;;;;;;;13.13;11.47;;;;;;;;;;4989673;28;20181;-59
2022/09/10 06:24:10;;;;;;;14.67;11.87;;;;;;;;;;4992423;28;20299;-60
2022/09/10 06:26:40;;;;;;;15.00;12.23;;;;;;;;;;4992529;28;20196;-60
2022/09/10 06:29:11;;;;;;;13.00;11.47;;;;;;;;;;4993244;28;20193;-60
2022/09/10 06:31:39;;;;;;;16.00;12.30;;;;;;;;;;4993182;28;21023;-59
2022/09/10 06:34:06;;;;;;;14.67;11.80;;;;;;;;;;4989556;28;20260;-61
2022/09/10 06:36:34;;;;;;;13.77;10.87;;;;;;;;;;5007119;28;20247;-58
2022/09/10 06:39:02;;;;;;;12.10;10.67;;;;;;;;;;4990744;28;20200;-60
2022/09/10 06:41:37;;;;;;;11.60;10.40;;;;;;;;;;4981912;28;20215;-64
2022/09/10 06:44:09;;;;;;;14.83;10.83;;;;;;;;;;4997703;28;20594;-61
2022/09/10 06:46:42;;;;;;;13.23;11.03;;;;;;;;;;4971171;28;20235;-61
2022/09/10 06:49:30;;;;;;;14.00;11.43;;;;;;;;;;4981587;28;20197;-63
2022/09/10 06:52:00;;;;;;;13.90;11.50;;;;;;;;;;4967175;28;20232;-63
2022/09/10 06:54:28;;;;;;;15.23;11.77;;;;;;;;;;4981262;28;20533;-60
2022/09/10 06:57:00;;;;;;;15.43;12.27;;;;;;;;;;4982316;28;20240;-60
2022/09/10 06:59:30;;;;;;;15.50;11.67;;;;;;;;;;4980154;28;20195;-61
2022/09/10 07:01:57;;;;;;;15.03;11.50;;;;;;;;;;4987496;28;20211;-61
2022/09/10 07:04:24;;;;;;;14.63;11.63;;;;;;;;;;4977595;28;20997;-63
2022/09/10 07:06:51;;;;;;;14.93;11.50;;;;;;;;;;4981498;28;20263;-62
2022/09/10 07:09:17;;;;;;;16.63;12.67;;;;;;;;;;4985050;28;20196;-60
2022/09/10 07:11:53;;;;;;;14.87;11.13;;;;;;;;;;4948377;28;20197;-61
2022/09/10 07:14:20;;;;;;;13.27;10.37;;;;;;;;;;4988735;28;20213;-60
2022/09/10 07:16:50;;;;;;;11.03;9.70;;;;;;;;;;4968008;28;20213;-60
2022/09/10 07:19:19;;;;;;;15.27;11.63;;;;;;;;;;4969264;28;20202;-60
2022/09/10 07:21:49;;;;;;;17.17;12.33;;;;;;;;;;4985453;28;20193;-60
2022/09/10 07:24:16;;;;;;;12.97;11.30;;;;;;;;;;4988524;28;20197;-60
2022/09/10 07:26:58;;;;;;;12.80;10.20;;;;;;;;;;4963330;28;20200;-61
2022/09/10 07:29:25;;;;;;;12.67;10.30;;;;;;;;;;4969163;28;20276;-61
2022/09/10 07:31:52;;;;;;;11.80;9.97;;;;;;;;;;4985134;28;20189;-61
2022/09/10 07:34:22;;;;;;;13.23;10.50;;;;;;;;;;4988574;28;20279;-61
2022/09/10 07:36:51;;;;;;;11.07;9.87;;;;;;;;;;4983877;28;20703;-61
2022/09/10 07:39:19;;;;;;;13.27;10.13;;;;;;;;;;4986979;28;20200;-60
2022/09/10 07:41:52;;;;;;;12.40;10.20;;;;;;;;;;4987073;28;20189;-61
2022/09/10 07:44:22;;;;;;;12.70;10.37;;;;;;;;;;4987997;28;20283;-61
2022/09/10 07:46:50;;;;;;;12.97;10.63;;;;;;;;;;4988600;28;20208;-61
2022/09/10 07:49:19;;;;;;;13.40;10.50;;;;;;;;;;4972163;28;20220;-61
2022/09/10 07:51:53;;;;;;;13.53;10.77;;;;;;;;;;4986465;28;20236;-61
2022/09/10 07:54:29;;;;;;;12.83;10.20;;;;;;;;;;4970916;28;20669;-61
2022/09/10 07:56:56;;;;;;;13.23;10.27;;;;;;;;;;4977436;28;20616;-60
2022/09/10 07:59:25;;;;;;;11.67;9.83;;;;;;;;;;4971002;28;20754;-60
2022/09/10 08:01:58;;;;;;;14.73;11.10;;;;;;;;;;4971128;28;20335;-60
2022/09/10 08:04:30;;;;;;;13.37;10.97;;;;;;;;;;4985916;28;20201;-60
2022/09/10 08:07:04;;;;;;;11.37;9.83;;;;;;;;;;4978154;28;20684;-63
2022/09/10 08:09:33;;;;;;;12.43;10.13;;;;;;;;;;4964871;28;20561;-60
2022/09/10 08:12:01;;;;;;;12.03;9.60;;;;;;;;;;4975001;28;20308;-60
2022/09/10 08:14:28;;;;;;;11.60;9.27;;;;;;;;;;4976778;28;20195;-60
2022/09/10 08:16:55;;;;;;;13.13;11.10;;;;;;;;;;4965873;28;20891;-60
2022/09/10 08:19:22;;;;;;;16.40;11.53;;;;;;;;;;4982048;28;20194;-61
2022/09/10 08:21:50;;;;;;;14.37;11.10;;;;;;;;;;4970696;28;20766;-60
2022/09/10 08:24:26;;;;;;;14.17;10.33;;;;;;;;;;4976438;28;20193;-60
2022/09/10 08:26:53;;;;;;;13.93;11.23;;;;;;;;;;4985348;28;20263;-61
2022/09/10 08:29:21;;;;;;;13.53;11.43;;;;;;;;;;4968309;28;20212;-61
2022/09/10 08:31:49;;;;;;;14.40;11.97;;;;;;;;;;4984372;28;20387;-61
2022/09/10 08:34:21;;;;;;;16.27;12.83;;;;;;;;;;4986961;28;20196;-59
2022/09/10 08:36:56;;;;;;;18.13;13.27;;;;;;;;;;4986918;28;20235;-56
2022/09/10 08:39:23;;;;;;;15.53;11.20;;;;;;;;;;4987930;28;20785;-61
2022/09/10 08:41:56;;;;;;;13.73;11.20;;;;;;;;;;4967325;28;20192;-61
2022/09/10 08:44:41;;;;;;;14.47;11.00;;;;;;;;;;4968021;28;20296;-61
2022/09/10 08:47:08;;;;;;;14.80;11.73;;;;;;;;;;4974015;28;20296;-61
2022/09/10 08:49:37;;;;;;;14.73;11.40;;;;;;;;;;4981341;28;20199;-61
2022/09/10 08:52:16;;;;;;;14.73;11.27;;;;;;;;;;4965050;28;20233;-64
2022/09/10 08:54:51;;;;;;;14.17;11.10;;;;;;;;;;4978992;28;20295;-62
2022/09/10 08:57:29;;;;;;;15.23;12.17;;;;;;;;;;4983843;28;20267;-61
2022/09/10 08:59:56;;;;;;;15.20;11.97;;;;;;;;;;4982579;28;20196;-61
2022/09/10 09:02:28;;;;;;;17.03;12.87;;;;;;;;;;4963106;28;20215;-61
2022/09/10 09:05:21;;;;;;;21.77;14.50;;;;;;;;;;4980392;28;20227;-61
2022/09/10 09:07:52;;;;;;;18.27;14.30;;;;;;;;;;4957537;28;20236;-62
2022/09/10 09:10:19;;;;;;;19.17;14.30;;;;;;;;;;4969564;28;20205;-62
2022/09/10 09:12:49;;;;;;;18.90;14.40;;;;;;;;;;4987694;28;20192;-62
2022/09/10 09:15:18;;;;;;;17.93;14.13;;;;;;;;;;4969379;28;20275;-61
2022/09/10 09:17:51;;;;;;;19.73;14.50;;;;;;;;;;4985767;28;20288;-62
2022/09/10 09:20:31;;;;;;;19.53;14.57;;;;;;;;;;4983724;28;20251;-61
2022/09/10 09:23:12;;;;;;;19.40;14.30;;;;;;;;;;4971108;28;20284;-61
2022/09/10 09:25:39;;;;;;;19.83;14.63;;;;;;;;;;4968676;28;20311;-61
2022/09/10 09:28:09;;;;;;;18.73;14.93;;;;;;;;;;4968573;28;20193;-61
2022/09/10 09:30:38;;;;;;;19.33;14.40;;;;;;;;;;4982776;28;20616;-61
2022/09/10 09:33:17;;;;;;;19.63;15.27;;;;;;;;;;4969968;28;20672;-61
2022/09/10 09:35:47;;;;;;;20.57;14.90;;;;;;;;;;4954460;28;20220;-61
2022/09/10 09:38:23;;;;;;;23.30;16.93;;;;;;;;;;4968177;28;20620;-62
2022/09/10 09:40:54;;;;;;;22.80;15.53;;;;;;;;;;4969718;28;20207;-61
2022/09/10 09:43:41;;;;;;;22.43;16.43;;;;;;;;;;4966736;28;20869;-61
2022/09/10 09:46:13;;;;;;;22.73;16.83;;;;;;;;;;4969290;28;20197;-62
2022/09/10 09:48:43;;;;;;;21.80;16.17;;;;;;;;;;4969370;28;20561;-62
2022/09/10 09:51:12;;;;;;;21.47;15.40;;;;;;;;;;4968797;28;20576;-61
2022/09/10 09:53:39;;;;;;;18.13;14.00;;;;;;;;;;4978106;28;20193;-62
2022/09/10 09:56:11;;;;;;;19.27;14.67;;;;;;;;;;4986375;28;20303;-61
2022/09/10 09:58:39;;;;;;;18.90;14.57;;;;;;;;;;4986766;28;20600;-62
2022/09/10 10:01:08;;;;;;;19.87;14.50;;;;;;;;;;4970680;28;20200;-61
2022/09/10 10:03:47;;;;;;;18.47;13.63;;;;;;;;;;4988273;28;20181;-61
2022/09/10 10:06:14;;;;;;;19.43;14.13;;;;;;;;;;4989836;28;20196;-62
2022/09/10 10:08:43;;;;;;;18.37;13.70;;;;;;;;;;4996483;28;20236;-61
2022/09/10 10:11:11;;;;;;;17.93;13.00;;;;;;;;;;5008577;28;20195;-61
2022/09/10 10:13:42;;;;;;;18.13;12.63;;;;;;;;;;4998887;28;20197;-61
2022/09/10 10:16:21;;;;;;;21.10;15.67;;;;;;;;;;5000736;28;20218;-62
2022/09/10 10:18:47;;;;;;;22.40;16.37;;;;;;;;;;5000615;28;20764;-61
2022/09/10 10:21:15;;;;;;;25.23;18.13;;;;;;;;;;4990745;28;20218;-61
2022/09/10 10:23:42;;;;;;;24.23;17.77;;;;;;;;;;4999704;28;20203;-62
2022/09/10 10:26:29;;;;;;;22.93;16.87;;;;;;;;;;4999393;28;20242;-58
2022/09/10 10:28:58;;;;;;;21.30;15.03;;;;;;;;;;4997545;28;20197;-53
2022/09/10 10:31:44;;;;;;;20.73;15.77;;;;;;;;;;4993054;28;20248;-54
2022/09/10 10:34:17;;;;;;;25.67;16.67;;;;;;;;;;5003995;28;20227;-55
2022/09/10 10:36:52;;;;;;;24.20;16.73;;;;;;;;;;5006587;28;20216;-53
2022/09/10 10:39:23;;;;;;;19.80;14.97;;;;;;;;;;5000215;28;20197;-53
2022/09/10 10:42:03;;;;;;;23.43;15.90;;;;;;;;;;5006809;28;20206;-52
2022/09/10 10:44:36;;;;;;;22.07;15.97;;;;;;;;;;5006158;28;20200;-53
2022/09/10 10:47:22;;;;;;;22.43;15.03;;;;;;;;;;5008022;28;20196;-54
2022/09/10 10:50:10;;;;;;;20.80;16.20;;;;;;;;;;5010026;28;20199;-53
2022/09/10 10:52:40;;;;;;;22.70;15.27;;;;;;;;;;5005581;28;20282;-53
2022/09/10 10:55:23;;;;;;;20.13;14.80;;;;;;;;;;5007516;28;20211;-55
2022/09/10 10:57:50;;;;;;;20.87;14.90;;;;;;;;;;5003712;28;20750;-55
2022/09/10 11:00:17;;;;;;;24.40;14.57;;;;;;;;;;5006976;28;20196;-54
2022/09/10 11:02:51;;;;;;;24.60;15.67;;;;;;;;;;5006532;28;20180;-54
2022/09/10 11:05:18;;;;;;;23.03;15.57;;;;;;;;;;5000685;28;20203;-54
2022/09/10 11:07:46;;;;;;;20.80;15.23;;;;;;;;;;4965052;28;20220;-55
2022/09/10 11:10:18;;;;;;;25.20;16.10;;;;;;;;;;4975044;28;20683;-54
2022/09/10 11:12:50;;;;;;;20.23;14.50;;;;;;;;;;4988803;28;20236;-55
2022/09/10 11:15:17;;;;;;;22.37;15.10;;;;;;;;;;5004109;28;20255;-55
2022/09/10 11:17:47;;;;;;;20.10;14.77;;;;;;;;;;4995076;28;20212;-49
2022/09/10 11:20:14;;;;;;;18.77;14.27;;;;;;;;;;5002823;28;21074;-54
2022/09/10 11:22:59;;;;;;;27.40;14.43;;;;;;;;;;4988700;28;20208;-55
2022/09/10 11:25:26;;;;;;;18.90;14.40;;;;;;;;;;4988798;28;20197;-52
2022/09/10 11:27:54;;;;;;;19.77;14.47;;;;;;;;;;4981338;28;20188;-55
2022/09/10 11:30:22;;;;;;;21.00;15.13;;;;;;;;;;4983524;28;20197;-53
2022/09/10 11:32:59;;;;;;;20.17;14.87;;;;;;;;;;4984635;28;20216;-58
2022/09/10 11:35:26;;;;;;;21.20;15.17;;;;;;;;;;4989233;28;20192;-57
2022/09/10 11:38:02;;;;;;;18.40;13.63;;;;;;;;;;4988536;28;20216;-60
2022/09/10 11:40:41;;;;;;;17.83;13.73;;;;;;;;;;4987934;28;20196;-57
2022/09/10 11:43:19;;;;;;;18.13;13.97;;;;;;;;;;4982144;28;20277;-58
2022/09/10 11:45:47;;;;;;;19.70;13.83;;;;;;;;;;4987648;28;20584;-57
2022/09/10 11:48:17;;;;;;;17.17;12.60;;;;;;;;;;5001030;28;20645;-57
2022/09/10 11:50:45;;;;;;;15.10;11.40;;;;;;;;;;5002207;28;20850;-57
2022/09/10 11:53:13;;;;;;;17.00;12.93;;;;;;;;;;4978774;28;20229;-58
2022/09/10 11:55:43;;;;;;;17.63;13.73;;;;;;;;;;4982527;28;20200;-57
2022/09/10 11:58:11;;;;;;;20.17;13.67;;;;;;;;;;4985226;28;20812;-58
2022/09/10 12:00:51;;;;;;;20.63;13.17;;;;;;;;;;4987414;28;20247;-57
2022/09/10 12:03:28;;;;;;;22.00;14.10;;;;;;;;;;4999856;28;20216;-54
2022/09/10 12:05:59;;;;;;;16.03;12.10;;;;;;;;;;4977581;28;20719;-56
2022/09/10 12:08:29;;;;;;;20.77;13.23;;;;;;;;;;4969588;28;20274;-57
2022/09/10 12:11:03;;;;;;;16.70;13.40;;;;;;;;;;4983556;28;20208;-56
2022/09/10 12:13:33;;;;;;;20.90;12.20;;;;;;;;;;4966109;28;20193;-56
2022/09/10 12:16:01;;;;;;;21.73;13.10;;;;;;;;;;4985521;28;20195;-55
2022/09/10 12:18:29;;;;;;;18.57;13.27;;;;;;;;;;4963915;28;20748;-57
2022/09/10 12:21:07;;;;;;;17.33;13.03;;;;;;;;;;4969586;28;20608;-54
2022/09/10 12:23:38;;;;;;;19.20;12.57;;;;;;;;;;4980851;28;20279;-55
2022/09/10 12:26:05;;;;;;;17.97;11.80;;;;;;;;;;4971230;28;20188;-56
2022/09/10 12:28:41;;;;;;;15.30;12.73;;;;;;;;;;4987692;28;20197;-56
2022/09/10 12:31:08;;;;;;;20.83;13.70;;;;;;;;;;4986978;28;20203;-57
2022/09/10 12:33:56;;;;;;;20.10;14.47;;;;;;;;;;4958062;28;20224;-55
2022/09/10 12:36:26;;;;;;;23.87;15.30;;;;;;;;;;4987932;28;20223;-59
2022/09/10 12:39:11;;;;;;;19.73;14.43;;;;;;;;;;4988521;28;20195;-55
2022/09/10 12:41:38;;;;;;;19.93;14.57;;;;;;;;;;4986682;28;20189;-55
2022/09/10 12:44:25;;;;;;;19.80;14.87;;;;;;;;;;4987281;28;20680;-56
2022/09/10 12:47:10;;;;;;;19.53;14.00;;;;;;;;;;4988302;28;20279;-55
2022/09/10 12:49:48;;;;;;;19.40;14.07;;;;;;;;;;4988049;28;20204;-56
2022/09/10 12:52:16;;;;;;;19.37;13.53;;;;;;;;;;4974855;28;20232;-56
2022/09/10 12:54:59;;;;;;;17.60;13.13;;;;;;;;;;4970120;28;20259;-57
2022/09/10 12:57:29;;;;;;;19.17;13.50;;;;;;;;;;4975346;28;20231;-56
2022/09/10 12:59:59;;;;;;;19.50;14.47;;;;;;;;;;4987745;28;20704;-58
2022/09/10 13:02:30;;;;;;;21.07;15.47;;;;;;;;;;4970122;28;20623;-57
2022/09/10 13:04:58;;;;;;;20.23;15.57;;;;;;;;;;4987048;28;20564;-54
2022/09/10 13:07:32;;;;;;;22.13;16.73;;;;;;;;;;4975787;28;20193;-60
2022/09/10 13:10:12;;;;;;;24.20;17.67;;;;;;;;;;4985140;28;20224;-58
2022/09/10 13:12:45;;;;;;;24.03;16.20;;;;;;;;;;4986673;28;20197;-59
2022/09/10 13:15:16;;;;;;;22.83;16.50;;;;;;;;;;5002710;28;20553;-57
2022/09/10 13:17:46;;;;;;;22.47;16.70;;;;;;;;;;4985507;28;20734;-56
2022/09/10 13:20:13;;;;;;;22.63;16.80;;;;;;;;;;4986269;28;20196;-57
2022/09/10 13:23:02;;;;;;;21.40;16.07;;;;;;;;;;4987539;28;20211;-57
2022/09/10 13:25:38;;;;;;;20.43;16.10;;;;;;;;;;4985300;28;20562;-57
2022/09/10 13:28:24;;;;;;;22.27;17.07;;;;;;;;;;4986489;28;20196;-56
2022/09/10 13:31:01;;;;;;;23.70;16.80;;;;;;;;;;4987126;28;20185;-56
2022/09/10 13:33:29;;;;;;;24.93;18.37;;;;;;;;;;4987675;28;20216;-56
2022/09/10 13:35:55;;;;;;;24.23;17.67;;;;;;;;;;4975741;28;20219;-56
2022/09/10 13:38:43;;;;;;;25.03;18.60;;;;;;;;;;4986419;28;20887;-56
2022/09/10 13:41:10;;;;;;;25.73;18.73;;;;;;;;;;4990842;28;20282;-60
2022/09/10 13:43:40;;;;;;;24.50;18.27;;;;;;;;;;4990813;28;20236;-61
2022/09/10 13:46:08;;;;;;;27.83;20.90;;;;;;;;;;4990311;28;20201;-61
2022/09/10 13:48:42;;;;;;;26.80;20.27;;;;;;;;;;4990088;28;20204;-60
2022/09/10 13:51:22;;;;;;;27.50;20.00;;;;;;;;;;4988860;28;20196;-60
2022/09/10 13:53:49;;;;;;;27.63;20.30;;;;;;;;;;4977680;28;20288;-60
2022/09/10 13:56:20;;;;;;;27.80;20.90;;;;;;;;;;4988298;28;20235;-60
2022/09/10 13:58:48;;;;;;;26.50;20.37;;;;;;;;;;4990093;28;20204;-59
2022/09/10 14:01:14;;;;;;;28.57;21.57;;;;;;;;;;4990514;28;20303;-60
2022/09/10 14:03:43;;;;;;;27.47;20.00;;;;;;;;;;4990665;28;20560;-59
2022/09/10 14:06:11;;;;;;;26.53;19.13;;;;;;;;;;4990457;28;20195;-60
2022/09/10 14:08:41;;;;;;;24.47;18.23;;;;;;;;;;4972217;28;20882;-60
2022/09/10 14:11:10;;;;;;;23.87;17.30;;;;;;;;;;4989313;28;20564;-60
2022/09/10 14:13:56;;;;;;;24.17;17.10;;;;;;;;;;4980210;28;20279;-59
2022/09/10 14:16:34;;;;;;;27.73;19.20;;;;;;;;;;4990493;28;20193;-59
2022/09/10 14:19:01;;;;;;;32.30;23.90;;;;;;;;;;4991252;28;20188;-59
2022/09/10 14:21:33;;;;;;;34.50;26.67;;;;;;;;;;4990879;28;20196;-59
2022/09/10 14:24:00;;;;;;;39.33;30.47;;;;;;;;;;4983881;28;20320;-59
2022/09/10 14:26:28;;;;;;;29.70;22.27;;;;;;;;;;4983033;28;20941;-60
2022/09/10 14:28:57;;;;;;;25.77;18.80;;;;;;;;;;4988352;28;20197;-60
2022/09/10 14:31:24;;;;;;;25.97;17.93;;;;;;;;;;4989796;28;20225;-60
2022/09/10 14:33:55;;;;;;;25.30;17.00;;;;;;;;;;4991117;28;20271;-59
2022/09/10 14:36:28;;;;;;;23.97;16.50;;;;;;;;;;4982676;28;20255;-59